»·PEaware :: N46299 KSBP-KSMX

N46299 :: KSBP-KSMX

FLIGHT INFORMATION

Flight Status: Arrived
Operator: Privately registered:
United States
More flights under this callsign
Pilot: Victor C. (32144)
Aircraft: CESSNA 172 SKYHAWK
(C172)
More flights by this aircraft type
Origin: KSBP San Luis Co Regl
United States
Destination: KSMX Santa Maria Pub/Capt Hancock
United States
More flights between these airports :: More routes between these airports
Route: KSBP KSMX
File this flight plan on PilotEdge
Remarks: CAT 4
Altitude:
(Current/Filed)
5,000ft
Speed:
(Current/Filed)
100kts
Departed: 30-Oct-20 11:29 AM
Arrived: 30-Oct-20 11:58 AM
Distance/Time
Traveled:
23nm/0:28
Distance/Time
To Go:
Arrived

Flight Plot

Page will automatically refresh every two minutes.


Map Options




Map Legend


Flown Route
Filed Route
Departure Airport
Arrival Airport
Navaid (VOR, NDB)
Fix

Horizontal Profiles

Position Reports

Time Latitude Longitude Heading Altitude Ground
Speed
30-Oct-20 11:11 35.238922 -120.639407 180 214ft 0kts
30-Oct-20 11:12 35.238922 -120.639407 180 214ft 0kts
30-Oct-20 11:13 35.238922 -120.639407 180 214ft 0kts
30-Oct-20 11:14 35.238922 -120.639407 180 214ft 0kts
30-Oct-20 11:15 35.238922 -120.639407 180 214ft 0kts
30-Oct-20 11:16 35.238922 -120.639407 180 214ft 0kts
30-Oct-20 11:17 35.238922 -120.639407 180 214ft 0kts
30-Oct-20 11:18 35.238922 -120.639407 180 214ft 0kts
30-Oct-20 11:19 35.238922 -120.639407 180 214ft 0kts
30-Oct-20 11:20 35.238696 -120.639039 120 214ft 8kts
30-Oct-20 11:21 35.236549 -120.637417 123 214ft 11kts
30-Oct-20 11:22 35.233540 -120.632139 121 214ft 15kts
30-Oct-20 11:23 35.233170 -120.631854 253 214ft 0kts
30-Oct-20 11:24 35.233170 -120.631855 253 214ft 0kts
30-Oct-20 11:25 35.233170 -120.631854 253 214ft 0kts
30-Oct-20 11:26 35.233187 -120.632021 286 214ft 3kts
30-Oct-20 11:27 35.233215 -120.632276 213 214ft 0kts
30-Oct-20 11:28 35.237934 -120.641708 307 317ft 92kts
30-Oct-20 11:29 35.240047 -120.669460 212 1222ft 99kts
30-Oct-20 11:30 35.212332 -120.667762 148 1933ft 110kts
30-Oct-20 11:31 35.186563 -120.649193 155 2807ft 105kts
30-Oct-20 11:32 35.160248 -120.630186 144 3390ft 123kts
30-Oct-20 11:33 35.133540 -120.609307 150 4109ft 111kts
30-Oct-20 11:34 35.109420 -120.582157 123 4176ft 136kts
30-Oct-20 11:35 35.082671 -120.557095 165 4606ft 111kts
30-Oct-20 11:36 35.053139 -120.550822 161 4703ft 98kts
30-Oct-20 11:37 35.028680 -120.540696 161 4978ft 92kts
30-Oct-20 11:38 35.008796 -120.520465 144 5350ft 98kts
30-Oct-20 11:39 34.984876 -120.504413 155 5735ft 98kts
30-Oct-20 11:40 34.961187 -120.488743 117 6142ft 94kts
30-Oct-20 11:41 34.977618 -120.483226 328 6460ft 96kts
30-Oct-20 11:42 35.002582 -120.496106 354 6571ft 98kts
30-Oct-20 11:43 35.028518 -120.498508 337 6399ft 87kts
30-Oct-20 11:44 35.023796 -120.516656 178 6345ft 75kts
30-Oct-20 11:45 35.001575 -120.510853 151 6155ft 84kts
30-Oct-20 11:46 34.981202 -120.495167 152 6002ft 88kts
30-Oct-20 11:47 34.960179 -120.482497 163 5894ft 86kts
30-Oct-20 11:48 34.938145 -120.468449 157 5654ft 98kts
30-Oct-20 11:49 34.919779 -120.445224 127 4712ft 104kts
30-Oct-20 11:50 34.900093 -120.421539 138 3802ft 98kts
30-Oct-20 11:51 34.896255 -120.393673 27 2776ft 97kts
30-Oct-20 11:53 34.918840 -120.404681 324 2008ft 82kts
30-Oct-20 11:54 34.933083 -120.424101 268 1604ft 86kts
30-Oct-20 11:55 34.919859 -120.448916 216 1163ft 93kts
30-Oct-20 11:56 34.900606 -120.439156 139 896ft 73kts
30-Oct-20 11:57 34.888482 -120.440817 321 539ft 85kts
30-Oct-20 11:58 34.901034 -120.455740 318 264ft 28kts
30-Oct-20 11:59 34.903392 -120.456775 45 264ft 0kts
30-Oct-20 12:00 34.903574 -120.456544 54 264ft 7kts
30-Oct-20 12:01 34.899960 -120.451909 134 264ft 27kts
30-Oct-20 12:02 34.897280 -120.447272 115 264ft 18kts
30-Oct-20 12:03 34.897172 -120.446370 221 264ft 0kts
30-Oct-20 12:04 34.897172 -120.446370 221 264ft 0kts
30-Oct-20 12:05 34.897172 -120.446370 221 264ft 0kts
30-Oct-20 12:06 34.897172 -120.446370 221 264ft 0kts
30-Oct-20 12:06 34.897172 -120.446370 221 264ft 0kts
30-Oct-20 12:08 34.897172 -120.446370 221 264ft 0kts
30-Oct-20 12:08 34.897172 -120.446370 221 264ft 0kts
30-Oct-20 12:09 34.897172 -120.446370 221 264ft 0kts
30-Oct-20 12:10 34.897172 -120.446370 221 264ft 0kts
30-Oct-20 12:11 34.897172 -120.446370 221 264ft 0kts

Navigation Log

Ident Type
Flight plan parsing failed, navigation log unavailable